sensor_id;sensor_type;location;lat;lon;timestamp;P1;durP1;ratioP1;P2;durP2;ratioP2
43793;SDS011;29414;44.798;20.366;2022-10-17T00:03:23;6.35;;;4.78;;
43793;SDS011;29414;44.798;20.366;2022-10-17T00:07:23;7.18;;;4.65;;
43793;SDS011;29414;44.798;20.366;2022-10-17T00:11:23;6.60;;;4.47;;
43793;SDS011;29414;44.798;20.366;2022-10-17T00:15:23;5.38;;;4.50;;
43793;SDS011;29414;44.798;20.366;2022-10-17T00:19:24;9.18;;;5.30;;
43793;SDS011;29414;44.798;20.366;2022-10-17T00:23:24;5.70;;;4.43;;
43793;SDS011;29414;44.798;20.366;2022-10-17T00:27:26;7.25;;;5.10;;
43793;SDS011;29414;44.798;20.366;2022-10-17T00:31:26;5.38;;;4.15;;
43793;SDS011;29414;44.798;20.366;2022-10-17T00:35:27;7.95;;;4.13;;
43793;SDS011;29414;44.798;20.366;2022-10-17T00:39:30;7.25;;;4.45;;
43793;SDS011;29414;44.798;20.366;2022-10-17T00:44:00;6.75;;;5.13;;
43793;SDS011;29414;44.798;20.366;2022-10-17T00:48:21;9.00;;;5.13;;
43793;SDS011;29414;44.798;20.366;2022-10-17T00:52:23;8.13;;;4.72;;
43793;SDS011;29414;44.798;20.366;2022-10-17T00:56:25;7.00;;;4.15;;
43793;SDS011;29414;44.798;20.366;2022-10-17T01:00:25;7.47;;;4.40;;
43793;SDS011;29414;44.798;20.366;2022-10-17T01:04:25;5.85;;;4.80;;
43793;SDS011;29414;44.798;20.366;2022-10-17T01:08:26;5.28;;;4.70;;
43793;SDS011;29414;44.798;20.366;2022-10-17T01:12:36;7.22;;;4.40;;
43793;SDS011;29414;44.798;20.366;2022-10-17T01:37:49;7.53;;;4.97;;
43793;SDS011;29414;44.798;20.366;2022-10-17T01:41:57;6.30;;;4.57;;
43793;SDS011;29414;44.798;20.366;2022-10-17T01:46:02;8.25;;;4.78;;
43793;SDS011;29414;44.798;20.366;2022-10-17T01:50:14;7.10;;;4.55;;
43793;SDS011;29414;44.798;20.366;2022-10-17T01:54:31;4.97;;;4.47;;
43793;SDS011;29414;44.798;20.366;2022-10-17T01:58:35;6.13;;;4.55;;
43793;SDS011;29414;44.798;20.366;2022-10-17T02:02:37;5.40;;;4.03;;
43793;SDS011;29414;44.798;20.366;2022-10-17T02:06:38;8.45;;;4.22;;
43793;SDS011;29414;44.798;20.366;2022-10-17T02:10:43;6.22;;;4.28;;
43793;SDS011;29414;44.798;20.366;2022-10-17T02:23:15;6.35;;;4.90;;
43793;SDS011;29414;44.798;20.366;2022-10-17T02:31:28;5.07;;;3.95;;
43793;SDS011;29414;44.798;20.366;2022-10-17T02:35:30;4.40;;;3.97;;
43793;SDS011;29414;44.798;20.366;2022-10-17T02:39:32;5.75;;;4.40;;
43793;SDS011;29414;44.798;20.366;2022-10-17T02:43:34;7.88;;;4.20;;
43793;SDS011;29414;44.798;20.366;2022-10-17T02:47:35;6.82;;;4.32;;
43793;SDS011;29414;44.798;20.366;2022-10-17T02:51:41;4.75;;;4.30;;
43793;SDS011;29414;44.798;20.366;2022-10-17T02:55:45;9.23;;;4.78;;
43793;SDS011;29414;44.798;20.366;2022-10-17T02:59:47;5.10;;;4.60;;
43793;SDS011;29414;44.798;20.366;2022-10-17T03:03:48;4.82;;;4.03;;
43793;SDS011;29414;44.798;20.366;2022-10-17T03:07:48;6.20;;;4.88;;
43793;SDS011;29414;44.798;20.366;2022-10-17T03:11:49;7.40;;;5.18;;
43793;SDS011;29414;44.798;20.366;2022-10-17T03:15:49;6.10;;;4.97;;
43793;SDS011;29414;44.798;20.366;2022-10-17T03:19:50;7.20;;;5.20;;
43793;SDS011;29414;44.798;20.366;2022-10-17T03:23:50;7.45;;;5.00;;
43793;SDS011;29414;44.798;20.366;2022-10-17T03:27:50;6.32;;;4.05;;
43793;SDS011;29414;44.798;20.366;2022-10-17T03:31:51;7.93;;;4.70;;
43793;SDS011;29414;44.798;20.366;2022-10-17T03:35:51;7.03;;;4.97;;
43793;SDS011;29414;44.798;20.366;2022-10-17T03:39:51;7.25;;;4.53;;
43793;SDS011;29414;44.798;20.366;2022-10-17T03:43:52;5.20;;;4.70;;
43793;SDS011;29414;44.798;20.366;2022-10-17T03:47:53;10.50;;;4.35;;
43793;SDS011;29414;44.798;20.366;2022-10-17T03:51:53;9.55;;;4.63;;
43793;SDS011;29414;44.798;20.366;2022-10-17T03:55:53;7.25;;;4.68;;
43793;SDS011;29414;44.798;20.366;2022-10-17T03:59:54;9.23;;;4.95;;
43793;SDS011;29414;44.798;20.366;2022-10-17T04:03:55;5.55;;;4.57;;
43793;SDS011;29414;44.798;20.366;2022-10-17T04:07:55;15.43;;;5.15;;
43793;SDS011;29414;44.798;20.366;2022-10-17T04:11:55;9.13;;;5.00;;
43793;SDS011;29414;44.798;20.366;2022-10-17T04:16:00;6.82;;;5.60;;
43793;SDS011;29414;44.798;20.366;2022-10-17T04:20:00;9.88;;;5.72;;
43793;SDS011;29414;44.798;20.366;2022-10-17T04:24:00;6.10;;;4.18;;
43793;SDS011;29414;44.798;20.366;2022-10-17T04:28:01;9.45;;;5.85;;
43793;SDS011;29414;44.798;20.366;2022-10-17T04:32:01;8.70;;;5.77;;
43793;SDS011;29414;44.798;20.366;2022-10-17T04:36:03;13.18;;;6.20;;
43793;SDS011;29414;44.798;20.366;2022-10-17T04:40:03;9.77;;;5.65;;
43793;SDS011;29414;44.798;20.366;2022-10-17T04:44:04;7.97;;;5.10;;
43793;SDS011;29414;44.798;20.366;2022-10-17T04:48:04;11.35;;;5.97;;
43793;SDS011;29414;44.798;20.366;2022-10-17T04:52:05;9.60;;;5.97;;
43793;SDS011;29414;44.798;20.366;2022-10-17T04:56:09;5.93;;;4.78;;
43793;SDS011;29414;44.798;20.366;2022-10-17T05:00:09;7.60;;;6.40;;
43793;SDS011;29414;44.798;20.366;2022-10-17T05:04:10;7.63;;;5.88;;
43793;SDS011;29414;44.798;20.366;2022-10-17T05:08:10;9.57;;;6.18;;
43793;SDS011;29414;44.798;20.366;2022-10-17T05:12:11;11.53;;;6.23;;
43793;SDS011;29414;44.798;20.366;2022-10-17T05:16:11;8.87;;;6.33;;
43793;SDS011;29414;44.798;20.366;2022-10-17T05:20:11;8.13;;;6.47;;
43793;SDS011;29414;44.798;20.366;2022-10-17T05:24:12;18.55;;;6.95;;
43793;SDS011;29414;44.798;20.366;2022-10-17T05:28:13;15.90;;;6.93;;
43793;SDS011;29414;44.798;20.366;2022-10-17T05:32:14;9.63;;;6.20;;
43793;SDS011;29414;44.798;20.366;2022-10-17T05:36:14;10.57;;;5.90;;
43793;SDS011;29414;44.798;20.366;2022-10-17T05:40:14;9.98;;;6.10;;
43793;SDS011;29414;44.798;20.366;2022-10-17T05:44:15;7.43;;;5.57;;
43793;SDS011;29414;44.798;20.366;2022-10-17T05:48:15;8.45;;;6.38;;
43793;SDS011;29414;44.798;20.366;2022-10-17T05:52:15;7.73;;;5.67;;
43793;SDS011;29414;44.798;20.366;2022-10-17T05:56:15;8.85;;;6.10;;
43793;SDS011;29414;44.798;20.366;2022-10-17T06:00:16;15.35;;;6.22;;
43793;SDS011;29414;44.798;20.366;2022-10-17T06:04:16;6.38;;;5.78;;
43793;SDS011;29414;44.798;20.366;2022-10-17T06:08:17;7.13;;;5.82;;
43793;SDS011;29414;44.798;20.366;2022-10-17T06:12:17;16.73;;;6.97;;
43793;SDS011;29414;44.798;20.366;2022-10-17T06:16:17;6.45;;;5.82;;
43793;SDS011;29414;44.798;20.366;2022-10-17T06:20:18;6.84;;;5.20;;
43793;SDS011;29414;44.798;20.366;2022-10-17T06:24:18;7.95;;;5.90;;
43793;SDS011;29414;44.798;20.366;2022-10-17T06:28:18;10.30;;;5.50;;
43793;SDS011;29414;44.798;20.366;2022-10-17T06:32:18;44.50;;;7.75;;
43793;SDS011;29414;44.798;20.366;2022-10-17T06:36:19;8.27;;;5.00;;
43793;SDS011;29414;44.798;20.366;2022-10-17T06:40:19;7.50;;;4.70;;
43793;SDS011;29414;44.798;20.366;2022-10-17T06:44:19;9.38;;;4.50;;
43793;SDS011;29414;44.798;20.366;2022-10-17T06:48:21;9.35;;;5.20;;
43793;SDS011;29414;44.798;20.366;2022-10-17T06:52:21;7.82;;;4.45;;
43793;SDS011;29414;44.798;20.366;2022-10-17T06:56:21;6.85;;;4.95;;
43793;SDS011;29414;44.798;20.366;2022-10-17T07:00:22;5.90;;;4.28;;
43793;SDS011;29414;44.798;20.366;2022-10-17T07:04:22;6.55;;;4.35;;
43793;SDS011;29414;44.798;20.366;2022-10-17T07:08:22;8.50;;;4.22;;
43793;SDS011;29414;44.798;20.366;2022-10-17T07:12:23;9.10;;;5.13;;
43793;SDS011;29414;44.798;20.366;2022-10-17T07:16:23;6.07;;;4.18;;
43793;SDS011;29414;44.798;20.366;2022-10-17T07:20:24;5.62;;;4.06;;
43793;SDS011;29414;44.798;20.366;2022-10-17T07:24:24;9.13;;;4.65;;
43793;SDS011;29414;44.798;20.366;2022-10-17T07:28:24;12.65;;;4.55;;
43793;SDS011;29414;44.798;20.366;2022-10-17T07:32:24;7.10;;;4.90;;
43793;SDS011;29414;44.798;20.366;2022-10-17T07:36:25;6.55;;;4.25;;
43793;SDS011;29414;44.798;20.366;2022-10-17T07:40:25;6.32;;;4.35;;
43793;SDS011;29414;44.798;20.366;2022-10-17T07:44:32;6.32;;;4.93;;
43793;SDS011;29414;44.798;20.366;2022-10-17T07:48:34;6.68;;;3.83;;
43793;SDS011;29414;44.798;20.366;2022-10-17T07:52:34;5.68;;;3.72;;
43793;SDS011;29414;44.798;20.366;2022-10-17T07:56:35;8.18;;;4.18;;
43793;SDS011;29414;44.798;20.366;2022-10-17T08:00:35;11.40;;;3.92;;
43793;SDS011;29414;44.798;20.366;2022-10-17T08:04:36;4.75;;;4.03;;
43793;SDS011;29414;44.798;20.366;2022-10-17T08:08:36;7.00;;;4.25;;
43793;SDS011;29414;44.798;20.366;2022-10-17T08:12:36;8.80;;;4.40;;
43793;SDS011;29414;44.798;20.366;2022-10-17T08:16:37;8.95;;;4.63;;
43793;SDS011;29414;44.798;20.366;2022-10-17T08:20:37;8.10;;;4.25;;
43793;SDS011;29414;44.798;20.366;2022-10-17T08:24:37;7.68;;;4.05;;
43793;SDS011;29414;44.798;20.366;2022-10-17T08:28:38;7.75;;;3.88;;
43793;SDS011;29414;44.798;20.366;2022-10-17T08:32:39;9.93;;;4.00;;
43793;SDS011;29414;44.798;20.366;2022-10-17T08:36:39;6.50;;;3.85;;
43793;SDS011;29414;44.798;20.366;2022-10-17T08:40:39;4.72;;;4.22;;
43793;SDS011;29414;44.798;20.366;2022-10-17T08:48:48;5.47;;;3.60;;
43793;SDS011;29414;44.798;20.366;2022-10-17T08:52:51;5.10;;;4.50;;
43793;SDS011;29414;44.798;20.366;2022-10-17T08:56:52;4.78;;;3.50;;
43793;SDS011;29414;44.798;20.366;2022-10-17T09:01:19;4.93;;;3.72;;
43793;SDS011;29414;44.798;20.366;2022-10-17T09:05:25;5.63;;;3.92;;
43793;SDS011;29414;44.798;20.366;2022-10-17T09:09:30;11.02;;;4.20;;
43793;SDS011;29414;44.798;20.366;2022-10-17T09:18:00;6.57;;;3.40;;
43793;SDS011;29414;44.798;20.366;2022-10-17T09:21:59;8.32;;;4.15;;
43793;SDS011;29414;44.798;20.366;2022-10-17T09:26:00;7.57;;;3.90;;
43793;SDS011;29414;44.798;20.366;2022-10-17T09:30:12;8.65;;;4.40;;
43793;SDS011;29414;44.798;20.366;2022-10-17T09:34:14;7.35;;;3.80;;
43793;SDS011;29414;44.798;20.366;2022-10-17T09:38:16;4.78;;;3.47;;
43793;SDS011;29414;44.798;20.366;2022-10-17T09:42:17;7.05;;;3.80;;
43793;SDS011;29414;44.798;20.366;2022-10-17T09:50:30;5.22;;;3.83;;
43793;SDS011;29414;44.798;20.366;2022-10-17T09:54:41;5.55;;;3.15;;
43793;SDS011;29414;44.798;20.366;2022-10-17T09:58:46;4.80;;;3.33;;
43793;SDS011;29414;44.798;20.366;2022-10-17T10:02:47;5.00;;;3.42;;
43793;SDS011;29414;44.798;20.366;2022-10-17T10:07:03;7.93;;;3.60;;
43793;SDS011;29414;44.798;20.366;2022-10-17T10:11:05;5.68;;;3.72;;
43793;SDS011;29414;44.798;20.366;2022-10-17T10:23:28;7.47;;;3.40;;
43793;SDS011;29414;44.798;20.366;2022-10-17T10:27:29;8.00;;;3.75;;
43793;SDS011;29414;44.798;20.366;2022-10-17T10:31:31;14.45;;;4.07;;
43793;SDS011;29414;44.798;20.366;2022-10-17T10:35:33;12.68;;;3.90;;
43793;SDS011;29414;44.798;20.366;2022-10-17T10:39:45;5.57;;;3.65;;
43793;SDS011;29414;44.798;20.366;2022-10-17T10:43:47;8.20;;;3.88;;
43793;SDS011;29414;44.798;20.366;2022-10-17T10:47:52;5.57;;;4.13;;
43793;SDS011;29414;44.798;20.366;2022-10-17T10:55:57;6.97;;;3.80;;
43793;SDS011;29414;44.798;20.366;2022-10-17T11:00:10;5.80;;;3.35;;
43793;SDS011;29414;44.798;20.366;2022-10-17T11:08:16;15.60;;;3.60;;
43793;SDS011;29414;44.798;20.366;2022-10-17T11:28:40;4.45;;;3.42;;
43793;SDS011;29414;44.798;20.366;2022-10-17T11:32:43;6.03;;;3.55;;
43793;SDS011;29414;44.798;20.366;2022-10-17T11:36:44;6.90;;;2.85;;
43793;SDS011;29414;44.798;20.366;2022-10-17T11:40:47;3.22;;;2.97;;
43793;SDS011;29414;44.798;20.366;2022-10-17T11:44:49;3.95;;;2.67;;
43793;SDS011;29414;44.798;20.366;2022-10-17T11:52:57;8.15;;;2.97;;
43793;SDS011;29414;44.798;20.366;2022-10-17T11:57:08;7.13;;;3.63;;
43793;SDS011;29414;44.798;20.366;2022-10-17T12:05:29;3.75;;;3.45;;
43793;SDS011;29414;44.798;20.366;2022-10-17T12:09:44;5.97;;;3.63;;
43793;SDS011;29414;44.798;20.366;2022-10-17T12:13:46;6.00;;;3.13;;
43793;SDS011;29414;44.798;20.366;2022-10-17T12:17:59;4.20;;;3.30;;
43793;SDS011;29414;44.798;20.366;2022-10-17T12:22:03;8.70;;;3.85;;
43793;SDS011;29414;44.798;20.366;2022-10-17T12:26:05;5.63;;;3.13;;
43793;SDS011;29414;44.798;20.366;2022-10-17T12:30:13;3.28;;;2.70;;
43793;SDS011;29414;44.798;20.366;2022-10-17T12:34:15;3.95;;;3.55;;
43793;SDS011;29414;44.798;20.366;2022-10-17T12:42:27;5.30;;;3.08;;
43793;SDS011;29414;44.798;20.366;2022-10-17T12:55:12;5.18;;;2.95;;
43793;SDS011;29414;44.798;20.366;2022-10-17T12:59:14;5.10;;;3.65;;
43793;SDS011;29414;44.798;20.366;2022-10-17T13:03:25;6.20;;;4.05;;
43793;SDS011;29414;44.798;20.366;2022-10-17T13:07:27;7.68;;;3.92;;
43793;SDS011;29414;44.798;20.366;2022-10-17T13:11:28;6.68;;;4.32;;
43793;SDS011;29414;44.798;20.366;2022-10-17T13:15:29;5.97;;;3.97;;
43793;SDS011;29414;44.798;20.366;2022-10-17T13:19:30;4.13;;;3.67;;
43793;SDS011;29414;44.798;20.366;2022-10-17T13:23:34;7.38;;;4.03;;
43793;SDS011;29414;44.798;20.366;2022-10-17T13:27:35;4.72;;;3.65;;
43793;SDS011;29414;44.798;20.366;2022-10-17T13:31:37;11.93;;;3.95;;
43793;SDS011;29414;44.798;20.366;2022-10-17T13:35:37;6.18;;;4.05;;
43793;SDS011;29414;44.798;20.366;2022-10-17T13:39:39;6.90;;;4.10;;
43793;SDS011;29414;44.798;20.366;2022-10-17T13:43:40;8.55;;;4.10;;
43793;SDS011;29414;44.798;20.366;2022-10-17T13:47:40;5.43;;;3.45;;
43793;SDS011;29414;44.798;20.366;2022-10-17T13:51:42;6.20;;;3.60;;
43793;SDS011;29414;44.798;20.366;2022-10-17T13:55:49;9.25;;;4.18;;
43793;SDS011;29414;44.798;20.366;2022-10-17T14:00:15;4.88;;;3.60;;
43793;SDS011;29414;44.798;20.366;2022-10-17T14:04:10;6.32;;;4.20;;
43793;SDS011;29414;44.798;20.366;2022-10-17T14:08:12;6.57;;;4.20;;
43793;SDS011;29414;44.798;20.366;2022-10-17T14:12:15;4.75;;;3.55;;
43793;SDS011;29414;44.798;20.366;2022-10-17T14:16:18;8.07;;;4.28;;
43793;SDS011;29414;44.798;20.366;2022-10-17T14:20:19;10.25;;;4.28;;
43793;SDS011;29414;44.798;20.366;2022-10-17T14:28:21;6.65;;;3.55;;
43793;SDS011;29414;44.798;20.366;2022-10-17T14:32:21;7.68;;;3.40;;
43793;SDS011;29414;44.798;20.366;2022-10-17T14:36:29;6.38;;;3.65;;
43793;SDS011;29414;44.798;20.366;2022-10-17T14:40:30;4.80;;;3.53;;
43793;SDS011;29414;44.798;20.366;2022-10-17T14:44:31;3.88;;;3.50;;
43793;SDS011;29414;44.798;20.366;2022-10-17T14:48:32;6.43;;;3.58;;
43793;SDS011;29414;44.798;20.366;2022-10-17T14:52:33;4.35;;;3.45;;
43793;SDS011;29414;44.798;20.366;2022-10-17T14:56:40;7.35;;;4.22;;
43793;SDS011;29414;44.798;20.366;2022-10-17T15:00:40;24.90;;;5.75;;
43793;SDS011;29414;44.798;20.366;2022-10-17T15:04:41;12.40;;;4.47;;
43793;SDS011;29414;44.798;20.366;2022-10-17T15:08:41;4.47;;;3.80;;
43793;SDS011;29414;44.798;20.366;2022-10-17T15:12:41;6.70;;;4.20;;
43793;SDS011;29414;44.798;20.366;2022-10-17T15:16:41;7.78;;;4.72;;
43793;SDS011;29414;44.798;20.366;2022-10-17T15:20:42;5.13;;;3.80;;
43793;SDS011;29414;44.798;20.366;2022-10-17T15:24:42;8.73;;;3.85;;
43793;SDS011;29414;44.798;20.366;2022-10-17T15:28:45;7.85;;;4.10;;
43793;SDS011;29414;44.798;20.366;2022-10-17T15:32:46;8.00;;;4.55;;
43793;SDS011;29414;44.798;20.366;2022-10-17T15:36:47;10.90;;;4.57;;
43793;SDS011;29414;44.798;20.366;2022-10-17T15:40:48;7.10;;;3.97;;
43793;SDS011;29414;44.798;20.366;2022-10-17T15:44:50;12.05;;;5.15;;
43793;SDS011;29414;44.798;20.366;2022-10-17T15:48:51;11.43;;;4.53;;
43793;SDS011;29414;44.798;20.366;2022-10-17T15:52:52;7.43;;;4.97;;
43793;SDS011;29414;44.798;20.366;2022-10-17T15:56:53;9.05;;;4.80;;
43793;SDS011;29414;44.798;20.366;2022-10-17T16:00:53;17.20;;;7.70;;
43793;SDS011;29414;44.798;20.366;2022-10-17T16:04:53;16.52;;;7.68;;
43793;SDS011;29414;44.798;20.366;2022-10-17T16:08:54;22.00;;;8.70;;
43793;SDS011;29414;44.798;20.366;2022-10-17T16:12:54;9.27;;;5.80;;
43793;SDS011;29414;44.798;20.366;2022-10-17T16:16:55;10.98;;;6.10;;
43793;SDS011;29414;44.798;20.366;2022-10-17T16:20:55;12.68;;;5.78;;
43793;SDS011;29414;44.798;20.366;2022-10-17T16:24:55;19.40;;;5.84;;
43793;SDS011;29414;44.798;20.366;2022-10-17T16:28:58;10.98;;;6.00;;
43793;SDS011;29414;44.798;20.366;2022-10-17T16:33:01;8.23;;;5.68;;
43793;SDS011;29414;44.798;20.366;2022-10-17T16:37:01;13.68;;;5.78;;
43793;SDS011;29414;44.798;20.366;2022-10-17T16:41:02;17.38;;;6.93;;
43793;SDS011;29414;44.798;20.366;2022-10-17T16:45:02;11.60;;;5.75;;
43793;SDS011;29414;44.798;20.366;2022-10-17T16:49:05;14.30;;;5.60;;
43793;SDS011;29414;44.798;20.366;2022-10-17T16:53:06;13.07;;;7.25;;
43793;SDS011;29414;44.798;20.366;2022-10-17T16:57:06;10.48;;;6.63;;
43793;SDS011;29414;44.798;20.366;2022-10-17T17:01:08;14.32;;;6.50;;
43793;SDS011;29414;44.798;20.366;2022-10-17T17:05:09;10.85;;;5.43;;
43793;SDS011;29414;44.798;20.366;2022-10-17T17:09:09;12.95;;;6.47;;
43793;SDS011;29414;44.798;20.366;2022-10-17T17:13:09;40.50;;;16.35;;
43793;SDS011;29414;44.798;20.366;2022-10-17T17:17:10;36.20;;;16.02;;
43793;SDS011;29414;44.798;20.366;2022-10-17T17:21:10;21.42;;;11.00;;
43793;SDS011;29414;44.798;20.366;2022-10-17T17:25:11;20.20;;;8.93;;
43793;SDS011;29414;44.798;20.366;2022-10-17T17:29:11;30.00;;;11.68;;
43793;SDS011;29414;44.798;20.366;2022-10-17T17:33:11;19.48;;;9.65;;
43793;SDS011;29414;44.798;20.366;2022-10-17T17:37:12;14.55;;;7.78;;
43793;SDS011;29414;44.798;20.366;2022-10-17T17:41:13;15.40;;;7.65;;
43793;SDS011;29414;44.798;20.366;2022-10-17T17:45:13;16.65;;;9.05;;
43793;SDS011;29414;44.798;20.366;2022-10-17T17:49:13;21.23;;;8.88;;
43793;SDS011;29414;44.798;20.366;2022-10-17T17:53:14;14.88;;;7.95;;
43793;SDS011;29414;44.798;20.366;2022-10-17T17:57:14;15.85;;;7.45;;
43793;SDS011;29414;44.798;20.366;2022-10-17T18:01:15;21.40;;;8.90;;
43793;SDS011;29414;44.798;20.366;2022-10-17T18:05:19;19.30;;;7.97;;
43793;SDS011;29414;44.798;20.366;2022-10-17T18:09:19;12.07;;;7.75;;
43793;SDS011;29414;44.798;20.366;2022-10-17T18:13:20;10.43;;;6.25;;
43793;SDS011;29414;44.798;20.366;2022-10-17T18:17:20;9.10;;;6.55;;
43793;SDS011;29414;44.798;20.366;2022-10-17T18:21:21;11.23;;;7.63;;
43793;SDS011;29414;44.798;20.366;2022-10-17T18:25:21;10.13;;;6.72;;
43793;SDS011;29414;44.798;20.366;2022-10-17T18:29:21;15.14;;;6.46;;
43793;SDS011;29414;44.798;20.366;2022-10-17T18:33:21;9.12;;;7.48;;
43793;SDS011;29414;44.798;20.366;2022-10-17T18:37:22;9.65;;;7.40;;
43793;SDS011;29414;44.798;20.366;2022-10-17T18:41:22;9.13;;;7.47;;
43793;SDS011;29414;44.798;20.366;2022-10-17T18:45:23;10.82;;;6.65;;
43793;SDS011;29414;44.798;20.366;2022-10-17T18:49:23;13.95;;;7.68;;
43793;SDS011;29414;44.798;20.366;2022-10-17T18:53:24;11.55;;;7.68;;
43793;SDS011;29414;44.798;20.366;2022-10-17T18:57:24;13.48;;;8.25;;
43793;SDS011;29414;44.798;20.366;2022-10-17T19:01:25;10.52;;;6.85;;
43793;SDS011;29414;44.798;20.366;2022-10-17T19:05:25;8.48;;;7.57;;
43793;SDS011;29414;44.798;20.366;2022-10-17T19:09:26;11.43;;;7.47;;
43793;SDS011;29414;44.798;20.366;2022-10-17T19:13:26;15.78;;;8.40;;
43793;SDS011;29414;44.798;20.366;2022-10-17T19:17:26;10.02;;;8.02;;
43793;SDS011;29414;44.798;20.366;2022-10-17T19:21:27;9.42;;;7.68;;
43793;SDS011;29414;44.798;20.366;2022-10-17T19:25:27;11.13;;;8.07;;
43793;SDS011;29414;44.798;20.366;2022-10-17T19:29:29;10.90;;;9.10;;
43793;SDS011;29414;44.798;20.366;2022-10-17T19:33:33;14.27;;;9.27;;
43793;SDS011;29414;44.798;20.366;2022-10-17T19:37:33;14.60;;;9.07;;
43793;SDS011;29414;44.798;20.366;2022-10-17T19:41:33;11.07;;;8.55;;
43793;SDS011;29414;44.798;20.366;2022-10-17T19:45:35;10.85;;;8.73;;
43793;SDS011;29414;44.798;20.366;2022-10-17T19:49:35;12.57;;;8.90;;
43793;SDS011;29414;44.798;20.366;2022-10-17T19:53:35;14.77;;;9.63;;
43793;SDS011;29414;44.798;20.366;2022-10-17T19:57:36;18.73;;;9.75;;
43793;SDS011;29414;44.798;20.366;2022-10-17T20:01:36;14.45;;;9.63;;
43793;SDS011;29414;44.798;20.366;2022-10-17T20:05:40;15.10;;;9.05;;
43793;SDS011;29414;44.798;20.366;2022-10-17T20:09:40;12.98;;;9.10;;
43793;SDS011;29414;44.798;20.366;2022-10-17T20:13:40;15.18;;;9.43;;
43793;SDS011;29414;44.798;20.366;2022-10-17T20:17:41;14.23;;;9.57;;
43793;SDS011;29414;44.798;20.366;2022-10-17T20:21:41;13.98;;;9.85;;
43793;SDS011;29414;44.798;20.366;2022-10-17T20:25:42;13.93;;;9.20;;
43793;SDS011;29414;44.798;20.366;2022-10-17T20:29:42;12.25;;;10.40;;
43793;SDS011;29414;44.798;20.366;2022-10-17T20:33:43;12.57;;;9.65;;
43793;SDS011;29414;44.798;20.366;2022-10-17T20:37:43;17.13;;;9.07;;
43793;SDS011;29414;44.798;20.366;2022-10-17T20:41:43;15.52;;;9.48;;
43793;SDS011;29414;44.798;20.366;2022-10-17T20:45:44;14.57;;;8.40;;
43793;SDS011;29414;44.798;20.366;2022-10-17T20:49:44;18.20;;;8.55;;
43793;SDS011;29414;44.798;20.366;2022-10-17T20:53:45;13.55;;;8.38;;
43793;SDS011;29414;44.798;20.366;2022-10-17T20:57:45;14.85;;;8.57;;
43793;SDS011;29414;44.798;20.366;2022-10-17T21:01:46;10.50;;;8.15;;
43793;SDS011;29414;44.798;20.366;2022-10-17T21:05:46;11.85;;;8.88;;
43793;SDS011;29414;44.798;20.366;2022-10-17T21:09:46;15.80;;;9.60;;
43793;SDS011;29414;44.798;20.366;2022-10-17T21:13:47;15.25;;;9.63;;
43793;SDS011;29414;44.798;20.366;2022-10-17T21:17:52;14.13;;;9.15;;
43793;SDS011;29414;44.798;20.366;2022-10-17T21:21:52;15.40;;;10.15;;
43793;SDS011;29414;44.798;20.366;2022-10-17T21:25:52;15.15;;;9.85;;
43793;SDS011;29414;44.798;20.366;2022-10-17T21:29:53;14.50;;;9.82;;
43793;SDS011;29414;44.798;20.366;2022-10-17T21:33:54;17.27;;;10.18;;
43793;SDS011;29414;44.798;20.366;2022-10-17T21:37:55;17.85;;;10.52;;
43793;SDS011;29414;44.798;20.366;2022-10-17T21:41:55;20.44;;;10.04;;
43793;SDS011;29414;44.798;20.366;2022-10-17T21:45:55;13.23;;;8.90;;
43793;SDS011;29414;44.798;20.366;2022-10-17T21:49:56;13.48;;;9.18;;
43793;SDS011;29414;44.798;20.366;2022-10-17T21:53:56;15.95;;;9.02;;
43793;SDS011;29414;44.798;20.366;2022-10-17T21:57:56;14.80;;;9.02;;
43793;SDS011;29414;44.798;20.366;2022-10-17T22:01:57;12.80;;;8.70;;
43793;SDS011;29414;44.798;20.366;2022-10-17T22:05:57;13.63;;;8.75;;
43793;SDS011;29414;44.798;20.366;2022-10-17T22:09:58;9.57;;;7.95;;
43793;SDS011;29414;44.798;20.366;2022-10-17T22:13:59;12.07;;;7.93;;
43793;SDS011;29414;44.798;20.366;2022-10-17T22:18:00;11.32;;;8.43;;
43793;SDS011;29414;44.798;20.366;2022-10-17T22:22:00;11.55;;;8.80;;
43793;SDS011;29414;44.798;20.366;2022-10-17T22:26:01;10.88;;;8.13;;
43793;SDS011;29414;44.798;20.366;2022-10-17T22:30:01;10.40;;;8.02;;
43793;SDS011;29414;44.798;20.366;2022-10-17T22:34:02;10.25;;;7.10;;
43793;SDS011;29414;44.798;20.366;2022-10-17T22:38:02;9.88;;;6.45;;
43793;SDS011;29414;44.798;20.366;2022-10-17T22:42:02;14.32;;;8.32;;
43793;SDS011;29414;44.798;20.366;2022-10-17T22:46:03;11.93;;;7.80;;
43793;SDS011;29414;44.798;20.366;2022-10-17T22:50:04;10.00;;;7.85;;
43793;SDS011;29414;44.798;20.366;2022-10-17T22:54:04;10.68;;;7.13;;
43793;SDS011;29414;44.798;20.366;2022-10-17T22:58:04;11.45;;;6.80;;
43793;SDS011;29414;44.798;20.366;2022-10-17T23:02:05;10.90;;;6.68;;
43793;SDS011;29414;44.798;20.366;2022-10-17T23:06:05;11.05;;;7.20;;
43793;SDS011;29414;44.798;20.366;2022-10-17T23:10:05;11.25;;;6.45;;
43793;SDS011;29414;44.798;20.366;2022-10-17T23:14:06;9.15;;;6.75;;
43793;SDS011;29414;44.798;20.366;2022-10-17T23:18:06;12.13;;;7.10;;
43793;SDS011;29414;44.798;20.366;2022-10-17T23:22:08;11.52;;;7.00;;
43793;SDS011;29414;44.798;20.366;2022-10-17T23:26:10;9.20;;;6.85;;
43793;SDS011;29414;44.798;20.366;2022-10-17T23:30:11;8.30;;;6.55;;
43793;SDS011;29414;44.798;20.366;2022-10-17T23:34:11;7.22;;;6.45;;
43793;SDS011;29414;44.798;20.366;2022-10-17T23:38:12;8.70;;;7.18;;
43793;SDS011;29414;44.798;20.366;2022-10-17T23:42:12;9.93;;;5.82;;
43793;SDS011;29414;44.798;20.366;2022-10-17T23:46:12;7.65;;;6.32;;
43793;SDS011;29414;44.798;20.366;2022-10-17T23:50:12;9.93;;;6.55;;
43793;SDS011;29414;44.798;20.366;2022-10-17T23:54:13;10.25;;;6.20;;
43793;SDS011;29414;44.798;20.366;2022-10-17T23:58:13;9.32;;;7.03;;
